sensor_id;sensor_type;location;lat;lon;timestamp;P1;durP1;ratioP1;P2;durP2;ratioP2
15474;SDS011;7839;50.462;9.678;2023-07-09T00:01:03;4.05;;;3.72;;
15474;SDS011;7839;50.462;9.678;2023-07-09T00:07:44;3.25;;;3.03;;
15474;SDS011;7839;50.462;9.678;2023-07-09T00:14:25;2.65;;;2.45;;
15474;SDS011;7839;50.462;9.678;2023-07-09T00:21:05;2.95;;;2.75;;
15474;SDS011;7839;50.462;9.678;2023-07-09T00:27:46;2.72;;;2.53;;
15474;SDS011;7839;50.462;9.678;2023-07-09T00:34:28;2.42;;;2.17;;
15474;SDS011;7839;50.462;9.678;2023-07-09T00:41:13;3.10;;;2.80;;
15474;SDS011;7839;50.462;9.678;2023-07-09T00:48:00;2.65;;;2.45;;
15474;SDS011;7839;50.462;9.678;2023-07-09T00:54:43;2.50;;;2.30;;
15474;SDS011;7839;50.462;9.678;2023-07-09T01:01:27;2.60;;;2.40;;
15474;SDS011;7839;50.462;9.678;2023-07-09T01:08:08;2.50;;;2.40;;
15474;SDS011;7839;50.462;9.678;2023-07-09T01:14:51;2.00;;;1.90;;
15474;SDS011;7839;50.462;9.678;2023-07-09T01:21:33;2.33;;;2.22;;
15474;SDS011;7839;50.462;9.678;2023-07-09T01:28:13;2.33;;;2.17;;
15474;SDS011;7839;50.462;9.678;2023-07-09T01:34:55;2.45;;;2.25;;
15474;SDS011;7839;50.462;9.678;2023-07-09T01:41:35;2.38;;;2.17;;
15474;SDS011;7839;50.462;9.678;2023-07-09T01:48:15;2.28;;;2.10;;
15474;SDS011;7839;50.462;9.678;2023-07-09T01:54:56;2.50;;;2.33;;
15474;SDS011;7839;50.462;9.678;2023-07-09T02:01:36;2.20;;;2.10;;
15474;SDS011;7839;50.462;9.678;2023-07-09T02:08:17;1.85;;;1.75;;
15474;SDS011;7839;50.462;9.678;2023-07-09T02:14:58;2.00;;;1.90;;
15474;SDS011;7839;50.462;9.678;2023-07-09T02:21:38;2.10;;;2.00;;
15474;SDS011;7839;50.462;9.678;2023-07-09T02:28:18;2.10;;;2.00;;
15474;SDS011;7839;50.462;9.678;2023-07-09T02:34:59;2.15;;;2.05;;
15474;SDS011;7839;50.462;9.678;2023-07-09T02:41:46;3.80;;;3.45;;
15474;SDS011;7839;50.462;9.678;2023-07-09T02:48:27;2.03;;;1.92;;
15474;SDS011;7839;50.462;9.678;2023-07-09T02:55:07;2.20;;;2.00;;
15474;SDS011;7839;50.462;9.678;2023-07-09T03:01:48;2.13;;;2.00;;
15474;SDS011;7839;50.462;9.678;2023-07-09T03:08:29;1.60;;;1.50;;
15474;SDS011;7839;50.462;9.678;2023-07-09T03:15:09;1.67;;;1.58;;
15474;SDS011;7839;50.462;9.678;2023-07-09T03:21:49;1.60;;;1.50;;
15474;SDS011;7839;50.462;9.678;2023-07-09T03:28:30;1.70;;;1.60;;
15474;SDS011;7839;50.462;9.678;2023-07-09T03:35:11;1.88;;;1.77;;
15474;SDS011;7839;50.462;9.678;2023-07-09T03:41:52;1.80;;;1.70;;
15474;SDS011;7839;50.462;9.678;2023-07-09T03:48:32;2.20;;;1.95;;
15474;SDS011;7839;50.462;9.678;2023-07-09T03:55:12;1.70;;;1.60;;
15474;SDS011;7839;50.462;9.678;2023-07-09T04:01:53;1.90;;;1.80;;
15474;SDS011;7839;50.462;9.678;2023-07-09T04:08:33;1.50;;;1.42;;
15474;SDS011;7839;50.462;9.678;2023-07-09T04:15:14;1.60;;;1.50;;
15474;SDS011;7839;50.462;9.678;2023-07-09T04:21:54;1.47;;;1.43;;
15474;SDS011;7839;50.462;9.678;2023-07-09T04:28:34;1.80;;;1.70;;
15474;SDS011;7839;50.462;9.678;2023-07-09T04:35:15;1.55;;;1.45;;
15474;SDS011;7839;50.462;9.678;2023-07-09T04:41:55;1.20;;;1.13;;
15474;SDS011;7839;50.462;9.678;2023-07-09T04:48:35;1.58;;;1.48;;
15474;SDS011;7839;50.462;9.678;2023-07-09T04:55:16;1.05;;;1.05;;
15474;SDS011;7839;50.462;9.678;2023-07-09T05:01:58;1.92;;;1.02;;
15474;SDS011;7839;50.462;9.678;2023-07-09T05:08:39;1.50;;;1.40;;
15474;SDS011;7839;50.462;9.678;2023-07-09T05:15:19;1.23;;;1.23;;
15474;SDS011;7839;50.462;9.678;2023-07-09T05:22:00;1.20;;;1.10;;
15474;SDS011;7839;50.462;9.678;2023-07-09T05:28:40;1.13;;;1.13;;
15474;SDS011;7839;50.462;9.678;2023-07-09T05:35:20;1.40;;;1.27;;
15474;SDS011;7839;50.462;9.678;2023-07-09T05:42:01;1.48;;;1.35;;
15474;SDS011;7839;50.462;9.678;2023-07-09T05:48:41;1.60;;;1.50;;
15474;SDS011;7839;50.462;9.678;2023-07-09T05:55:25;4.85;;;4.45;;
15474;SDS011;7839;50.462;9.678;2023-07-09T06:02:07;1.73;;;1.63;;
15474;SDS011;7839;50.462;9.678;2023-07-09T06:08:47;1.70;;;1.60;;
15474;SDS011;7839;50.462;9.678;2023-07-09T06:15:27;1.58;;;1.48;;
15474;SDS011;7839;50.462;9.678;2023-07-09T06:22:08;1.80;;;1.70;;
15474;SDS011;7839;50.462;9.678;2023-07-09T06:28:48;3.22;;;2.70;;
15474;SDS011;7839;50.462;9.678;2023-07-09T06:35:29;2.53;;;2.33;;
15474;SDS011;7839;50.462;9.678;2023-07-09T06:42:09;1.80;;;1.70;;
15474;SDS011;7839;50.462;9.678;2023-07-09T06:48:49;1.63;;;1.53;;
15474;SDS011;7839;50.462;9.678;2023-07-09T06:55:30;3.85;;;3.30;;
15474;SDS011;7839;50.462;9.678;2023-07-09T07:02:12;5.47;;;4.63;;
15474;SDS011;7839;50.462;9.678;2023-07-09T07:08:52;4.20;;;3.90;;
15474;SDS011;7839;50.462;9.678;2023-07-09T07:15:32;4.88;;;4.25;;
15474;SDS011;7839;50.462;9.678;2023-07-09T07:22:13;5.40;;;3.95;;
15474;SDS011;7839;50.462;9.678;2023-07-09T07:28:53;5.00;;;3.72;;
15474;SDS011;7839;50.462;9.678;2023-07-09T07:35:33;5.05;;;3.83;;
15474;SDS011;7839;50.462;9.678;2023-07-09T07:42:15;4.57;;;3.63;;
15474;SDS011;7839;50.462;9.678;2023-07-09T07:48:55;3.80;;;3.47;;
15474;SDS011;7839;50.462;9.678;2023-07-09T07:55:36;6.35;;;4.07;;
15474;SDS011;7839;50.462;9.678;2023-07-09T08:02:16;4.78;;;3.88;;
15474;SDS011;7839;50.462;9.678;2023-07-09T08:08:57;4.25;;;3.85;;
15474;SDS011;7839;50.462;9.678;2023-07-09T08:15:37;4.63;;;3.90;;
15474;SDS011;7839;50.462;9.678;2023-07-09T08:22:17;4.78;;;3.63;;
15474;SDS011;7839;50.462;9.678;2023-07-09T08:29:00;7.60;;;3.55;;
15474;SDS011;7839;50.462;9.678;2023-07-09T08:35:44;3.40;;;3.10;;
15474;SDS011;7839;50.462;9.678;2023-07-09T08:42:39;5.40;;;3.13;;
15474;SDS011;7839;50.462;9.678;2023-07-09T08:49:23;3.25;;;3.05;;
15474;SDS011;7839;50.462;9.678;2023-07-09T08:56:10;3.40;;;3.10;;
15474;SDS011;7839;50.462;9.678;2023-07-09T09:02:51;3.30;;;3.10;;
15474;SDS011;7839;50.462;9.678;2023-07-09T09:10:07;3.72;;;3.40;;
15474;SDS011;7839;50.462;9.678;2023-07-09T09:16:40;3.72;;;3.38;;
15474;SDS011;7839;50.462;9.678;2023-07-09T09:23:25;4.05;;;2.95;;
15474;SDS011;7839;50.462;9.678;2023-07-09T09:30:16;4.30;;;3.15;;
15474;SDS011;7839;50.462;9.678;2023-07-09T09:36:58;5.57;;;4.30;;
15474;SDS011;7839;50.462;9.678;2023-07-09T09:43:41;8.35;;;3.47;;
15474;SDS011;7839;50.462;9.678;2023-07-09T09:50:30;3.80;;;3.50;;
15474;SDS011;7839;50.462;9.678;2023-07-09T09:57:15;3.78;;;3.47;;
15474;SDS011;7839;50.462;9.678;2023-07-09T10:03:57;4.13;;;3.72;;
15474;SDS011;7839;50.462;9.678;2023-07-09T10:24:45;4.20;;;3.80;;
15474;SDS011;7839;50.462;9.678;2023-07-09T10:31:40;3.33;;;2.97;;
15474;SDS011;7839;50.462;9.678;2023-07-09T10:45:58;5.55;;;4.07;;
15474;SDS011;7839;50.462;9.678;2023-07-09T10:52:40;8.20;;;3.70;;
15474;SDS011;7839;50.462;9.678;2023-07-09T10:59:29;3.45;;;3.15;;
15474;SDS011;7839;50.462;9.678;2023-07-09T11:06:15;4.25;;;3.85;;
15474;SDS011;7839;50.462;9.678;2023-07-09T11:12:58;4.72;;;3.42;;
15474;SDS011;7839;50.462;9.678;2023-07-09T11:19:42;4.57;;;3.97;;
15474;SDS011;7839;50.462;9.678;2023-07-09T11:33:04;5.00;;;3.78;;
15474;SDS011;7839;50.462;9.678;2023-07-09T11:39:46;7.88;;;3.55;;
15474;SDS011;7839;50.462;9.678;2023-07-09T11:46:27;7.30;;;3.90;;
15474;SDS011;7839;50.462;9.678;2023-07-09T11:53:16;5.00;;;3.75;;
15474;SDS011;7839;50.462;9.678;2023-07-09T12:00:02;6.07;;;3.70;;
15474;SDS011;7839;50.462;9.678;2023-07-09T12:06:42;5.43;;;4.15;;
15474;SDS011;7839;50.462;9.678;2023-07-09T12:13:25;4.47;;;3.47;;
15474;SDS011;7839;50.462;9.678;2023-07-09T12:20:05;5.35;;;3.67;;
15474;SDS011;7839;50.462;9.678;2023-07-09T12:27:20;5.57;;;3.60;;
15474;SDS011;7839;50.462;9.678;2023-07-09T12:33:52;3.88;;;3.33;;
15474;SDS011;7839;50.462;9.678;2023-07-09T12:40:33;5.53;;;3.90;;
15474;SDS011;7839;50.462;9.678;2023-07-09T12:47:15;3.75;;;3.40;;
15474;SDS011;7839;50.462;9.678;2023-07-09T13:00:49;4.93;;;3.72;;
15474;SDS011;7839;50.462;9.678;2023-07-09T13:07:33;5.07;;;3.85;;
15474;SDS011;7839;50.462;9.678;2023-07-09T13:14:19;7.30;;;3.60;;
15474;SDS011;7839;50.462;9.678;2023-07-09T13:21:00;4.65;;;3.50;;
15474;SDS011;7839;50.462;9.678;2023-07-09T13:27:40;6.22;;;3.97;;
15474;SDS011;7839;50.462;9.678;2023-07-09T13:34:24;4.70;;;4.05;;
15474;SDS011;7839;50.462;9.678;2023-07-09T13:41:12;5.65;;;3.47;;
15474;SDS011;7839;50.462;9.678;2023-07-09T13:47:54;4.72;;;4.05;;
15474;SDS011;7839;50.462;9.678;2023-07-09T13:54:34;4.15;;;3.75;;
15474;SDS011;7839;50.462;9.678;2023-07-09T14:01:20;5.10;;;3.95;;
